Time;durP1;ratioP1;P1;durP2;ratioP2;P2;SDS_P1;SDS_P2;PMS_P1;PMS_P2;Temp;Humidity;BMP_temperature;BMP_pressure;BME280_temperature;BME280_humidity;BME280_pressure;Samples;Min_cycle;Max_cycle;Signal;HPM_P1;HPM_P2
2021/06/18 00:00:35;;;;;;;8.40;6.77;;;22.20;97.90;;;;;;5000106;28;20190;-68
2021/06/18 00:03:01;;;;;;;7.93;7.10;;;22.10;97.90;;;;;;4987005;28;20738;-69
2021/06/18 00:05:27;;;;;;;7.50;6.90;;;22.00;98.00;;;;;;4989208;28;20211;-69
2021/06/18 00:07:55;;;;;;;7.70;6.97;;;22.00;98.40;;;;;;4990080;28;20574;-69
2021/06/18 00:10:24;;;;;;;7.40;6.70;;;21.90;98.10;;;;;;5000091;28;20190;-68
2021/06/18 00:12:51;;;;;;;8.40;7.60;;;21.90;98.40;;;;;;4999165;28;20208;-69
2021/06/18 00:15:17;;;;;;;8.80;6.55;;;21.80;98.60;;;;;;5004288;28;20214;-68
2021/06/18 00:17:43;;;;;;;7.75;7.20;;;21.70;98.90;;;;;;4996925;28;20216;-69
2021/06/18 00:20:11;;;;;;;7.93;7.20;;;21.70;99.10;;;;;;4986053;28;20333;-69
2021/06/18 00:22:37;;;;;;;8.17;7.40;;;21.70;99.30;;;;;;5003972;28;20485;-68
2021/06/18 00:25:05;;;;;;;8.05;7.40;;;21.60;99.30;;;;;;4998055;28;20469;-68
2021/06/18 00:27:34;;;;;;;9.90;7.28;;;21.60;99.30;;;;;;5005589;28;20214;-68
2021/06/18 00:29:59;;;;;;;10.52;7.53;;;21.60;99.50;;;;;;4996092;28;20273;-68
2021/06/18 00:32:25;;;;;;;8.03;7.40;;;21.60;99.60;;;;;;4992139;28;20281;-68
2021/06/18 00:34:51;;;;;;;8.13;7.33;;;21.50;99.60;;;;;;4993025;28;20569;-68
2021/06/18 00:37:16;;;;;;;7.70;7.10;;;21.40;99.60;;;;;;4997746;28;20676;-68
2021/06/18 00:39:42;;;;;;;7.60;7.00;;;21.40;99.90;;;;;;5001694;28;20722;-69
2021/06/18 00:42:08;;;;;;;8.47;7.67;;;21.30;99.90;;;;;;4992371;28;20331;-69
2021/06/18 00:44:34;;;;;;;8.03;7.13;;;21.40;99.90;;;;;;5002919;28;20676;-69
2021/06/18 00:47:00;;;;;;;8.25;7.28;;;21.30;99.90;;;;;;4998096;28;20457;-68
2021/06/18 00:49:26;;;;;;;7.47;6.83;;;21.30;99.90;;;;;;4994691;28;20190;-68
2021/06/18 00:51:53;;;;;;;7.78;6.97;;;21.30;99.90;;;;;;5003525;28;20183;-69
2021/06/18 00:54:28;;;;;;;7.63;7.05;;;21.30;99.90;;;;;;4994451;28;20762;-69
2021/06/18 00:57:01;;;;;;;6.75;6.35;;;21.30;99.90;;;;;;4990452;28;20210;-68
2021/06/18 00:59:29;;;;;;;8.45;7.68;;;21.30;99.90;;;;;;4992704;28;20189;-68
2021/06/18 01:01:55;;;;;;;7.38;6.65;;;21.20;99.90;;;;;;5002641;28;20187;-67
2021/06/18 01:04:26;;;;;;;8.50;7.80;;;21.10;99.90;;;;;;4998994;28;20222;-68
2021/06/18 01:07:16;;;;;;;7.20;6.43;;;21.20;99.90;;;;;;4994777;28;20493;-69
2021/06/18 01:10:08;;;;;;;7.75;7.03;;;21.20;99.90;;;;;;4983834;28;20190;-68
2021/06/18 01:12:42;;;;;;;7.70;7.10;;;21.00;99.90;;;;;;4995459;28;20723;-68
2021/06/18 01:15:43;;;;;;;8.13;7.50;;;21.00;99.90;;;;;;4995683;28;20187;-68
2021/06/18 01:18:14;;;;;;;7.65;7.03;;;21.00;99.90;;;;;;4988235;28;20258;-68
2021/06/18 01:20:55;;;;;;;7.80;7.10;;;21.00;99.90;;;;;;5002286;28;20196;-68
2021/06/18 01:23:28;;;;;;;7.85;7.15;;;21.00;99.90;;;;;;4985096;28;20189;-67
2021/06/18 01:26:03;;;;;;;7.90;7.25;;;20.90;99.90;;;;;;4989249;28;20211;-68
2021/06/18 01:28:48;;;;;;;7.68;6.88;;;20.90;99.90;;;;;;5000761;28;20207;-68
2021/06/18 01:31:18;;;;;;;8.10;7.35;;;20.90;99.90;;;;;;5013618;28;20215;-68
2021/06/18 01:34:02;;;;;;;8.30;7.70;;;20.80;99.90;;;;;;4997837;28;20198;-68
2021/06/18 01:36:30;;;;;;;7.78;7.15;;;20.90;99.90;;;;;;4990640;28;20187;-67
2021/06/18 01:38:58;;;;;;;8.65;7.90;;;20.90;99.90;;;;;;4980643;28;20197;-67
2021/06/18 01:41:29;;;;;;;8.10;7.50;;;20.70;99.90;;;;;;4991761;28;20195;-67
2021/06/18 01:43:58;;;;;;;8.00;7.40;;;20.70;99.90;;;;;;4989503;28;20187;-66
2021/06/18 01:46:30;;;;;;;7.97;7.38;;;20.60;99.90;;;;;;4991989;28;20219;-66
2021/06/18 01:49:02;;;;;;;7.63;7.03;;;20.60;99.90;;;;;;5000468;28;20183;-67
2021/06/18 01:51:29;;;;;;;7.97;7.18;;;20.60;99.90;;;;;;5003502;28;20187;-67
2021/06/18 01:53:58;;;;;;;8.05;7.32;;;20.50;99.90;;;;;;5000652;28;20661;-67
2021/06/18 01:56:24;;;;;;;7.75;7.05;;;20.50;99.90;;;;;;5008157;28;20656;-67
2021/06/18 01:58:54;;;;;;;8.07;7.35;;;20.50;99.90;;;;;;5009492;28;20198;-67
2021/06/18 02:01:21;;;;;;;7.47;6.78;;;20.60;99.90;;;;;;5004335;28;20723;-67
2021/06/18 02:03:49;;;;;;;7.40;6.80;;;20.60;99.90;;;;;;4996339;28;20184;-67
2021/06/18 02:06:16;;;;;;;7.38;6.78;;;20.50;99.90;;;;;;5004950;28;20222;-67
2021/06/18 02:08:44;;;;;;;7.43;6.88;;;20.40;99.90;;;;;;4997289;28;20187;-67
2021/06/18 02:11:11;;;;;;;10.90;7.00;;;20.30;99.90;;;;;;5010562;28;20182;-67
2021/06/18 02:13:39;;;;;;;7.95;7.15;;;20.30;99.90;;;;;;5001456;28;20522;-67
2021/06/18 02:16:05;;;;;;;7.93;7.10;;;20.30;99.90;;;;;;5000403;28;20191;-67
2021/06/18 02:18:33;;;;;;;7.97;7.25;;;20.30;99.90;;;;;;5000370;28;20207;-67
2021/06/18 02:21:00;;;;;;;7.65;7.05;;;20.30;99.90;;;;;;5002254;28;20649;-67
2021/06/18 02:23:29;;;;;;;7.45;6.85;;;20.30;99.90;;;;;;4999173;28;20191;-68
2021/06/18 02:26:00;;;;;;;7.68;6.97;;;20.30;99.90;;;;;;5008698;28;20230;-68
2021/06/18 02:28:27;;;;;;;7.32;6.72;;;20.30;99.90;;;;;;5005787;28;20811;-68
2021/06/18 02:30:53;;;;;;;7.47;6.97;;;20.20;99.90;;;;;;4995384;28;20188;-68
2021/06/18 02:33:18;;;;;;;8.38;7.68;;;20.20;99.90;;;;;;5003118;28;20210;-68
2021/06/18 02:35:45;;;;;;;8.03;7.33;;;20.20;99.90;;;;;;4993859;28;20188;-69
2021/06/18 02:38:12;;;;;;;7.60;6.80;;;20.30;99.90;;;;;;4993424;28;20226;-67
2021/06/18 02:40:40;;;;;;;7.75;7.15;;;20.20;99.90;;;;;;5011928;28;20236;-67
2021/06/18 02:43:06;;;;;;;7.60;7.00;;;20.10;99.90;;;;;;5010932;28;20198;-67
2021/06/18 02:45:32;;;;;;;8.43;7.73;;;20.10;99.90;;;;;;4998124;28;20286;-67
2021/06/18 02:48:14;;;;;;;7.45;6.75;;;20.10;99.90;;;;;;5006350;28;20199;-67
2021/06/18 02:51:07;;;;;;;8.38;7.38;;;20.00;99.90;;;;;;4996803;28;20329;-67
2021/06/18 02:53:51;;;;;;;7.68;7.07;;;20.00;99.90;;;;;;4995155;28;20707;-66
2021/06/18 02:56:23;;;;;;;7.18;6.57;;;20.00;99.90;;;;;;5001903;28;20261;-65
2021/06/18 02:58:52;;;;;;;7.95;7.25;;;20.00;99.90;;;;;;4994961;28;20183;-66
2021/06/18 03:01:23;;;;;;;8.60;7.80;;;19.90;99.90;;;;;;5006258;28;20703;-67
2021/06/18 03:03:53;;;;;;;7.93;7.28;;;19.90;99.90;;;;;;5003835;28;20225;-67
2021/06/18 03:06:20;;;;;;;7.68;7.00;;;19.90;99.90;;;;;;4993504;28;20622;-64
2021/06/18 03:08:52;;;;;;;8.65;7.70;;;19.90;99.90;;;;;;5000099;28;20199;-64
2021/06/18 03:11:21;;;;;;;7.28;6.78;;;19.80;99.90;;;;;;4982548;28;20188;-65
2021/06/18 03:13:50;;;;;;;8.20;7.50;;;19.70;99.90;;;;;;4993059;28;20180;-67
2021/06/18 03:16:16;;;;;;;7.20;6.60;;;19.80;99.90;;;;;;5007917;28;20191;-67
2021/06/18 03:18:44;;;;;;;6.70;5.75;;;20.00;99.90;;;;;;4992566;28;20209;-68
2021/06/18 03:21:11;;;;;;;6.95;6.35;;;20.10;99.90;;;;;;4998627;28;20190;-69
2021/06/18 03:23:38;;;;;;;6.82;6.22;;;20.40;99.90;;;;;;4992511;28;20188;-69
2021/06/18 03:26:05;;;;;;;7.85;6.50;;;20.60;99.90;;;;;;5000056;28;20211;-68
2021/06/18 03:28:32;;;;;;;7.00;6.50;;;20.70;99.80;;;;;;4993608;28;20207;-68
2021/06/18 03:31:01;;;;;;;6.93;6.43;;;20.80;99.80;;;;;;4993864;28;20656;-68
2021/06/18 03:33:28;;;;;;;7.03;6.50;;;20.80;99.70;;;;;;4994062;28;20203;-69
2021/06/18 03:35:55;;;;;;;7.00;6.40;;;20.90;99.40;;;;;;4991793;28;20187;-69
2021/06/18 03:38:21;;;;;;;6.97;6.38;;;20.90;99.40;;;;;;4993186;28;20211;-68
2021/06/18 03:40:48;;;;;;;7.87;7.20;;;21.00;99.30;;;;;;5005330;28;20201;-68
2021/06/18 03:43:14;;;;;;;7.57;6.95;;;20.90;99.50;;;;;;5000750;28;20462;-69
2021/06/18 03:45:45;;;;;;;7.28;6.60;;;20.90;99.50;;;;;;4999696;28;20298;-68
2021/06/18 03:48:16;;;;;;;8.07;7.30;;;20.90;99.40;;;;;;4993992;28;20205;-69
2021/06/18 03:50:42;;;;;;;7.30;6.70;;;20.80;99.70;;;;;;5005413;28;20318;-68
2021/06/18 03:53:09;;;;;;;9.05;7.50;;;20.80;99.80;;;;;;4991242;28;20653;-69
2021/06/18 03:55:35;;;;;;;8.23;7.35;;;20.70;99.90;;;;;;4991055;28;20631;-69
2021/06/18 03:58:04;;;;;;;7.75;7.07;;;20.80;99.90;;;;;;4996231;28;20209;-69
2021/06/18 04:00:34;;;;;;;7.90;7.30;;;20.80;99.90;;;;;;4996945;28;20727;-68
2021/06/18 04:03:01;;;;;;;7.43;6.72;;;20.80;99.90;;;;;;4995912;28;20188;-68
2021/06/18 04:05:29;;;;;;;7.30;6.80;;;20.80;99.90;;;;;;4999274;28;20214;-69
2021/06/18 04:07:57;;;;;;;7.82;7.03;;;20.80;99.90;;;;;;4990656;28;20575;-69
2021/06/18 04:10:23;;;;;;;7.80;7.03;;;20.80;99.90;;;;;;4992639;28;20183;-69
2021/06/18 04:12:53;;;;;;;6.93;6.43;;;20.70;99.90;;;;;;4991283;28;20195;-70
2021/06/18 04:15:23;;;;;;;7.13;6.53;;;20.80;99.90;;;;;;4989519;28;20194;-61
2021/06/18 04:17:50;;;;;;;7.40;6.80;;;20.80;99.90;;;;;;4990233;28;20203;-60
2021/06/18 04:20:20;;;;;;;7.85;7.25;;;20.90;99.90;;;;;;4992624;28;20641;-62
2021/06/18 04:22:46;;;;;;;8.00;7.32;;;20.80;99.90;;;;;;5008486;28;20221;-61
2021/06/18 04:25:12;;;;;;;8.40;7.80;;;20.80;99.90;;;;;;4991443;28;20203;-61
2021/06/18 04:27:38;;;;;;;8.55;7.85;;;20.90;99.90;;;;;;4999111;28;20285;-61
2021/06/18 04:30:09;;;;;;;7.87;7.27;;;20.90;99.90;;;;;;4990303;28;20181;-60
2021/06/18 04:32:35;;;;;;;8.63;6.82;;;20.90;99.90;;;;;;4993325;28;20446;-62
2021/06/18 04:35:01;;;;;;;8.30;7.60;;;20.90;99.90;;;;;;4995872;28;20546;-60
2021/06/18 04:37:28;;;;;;;7.70;7.10;;;21.00;99.90;;;;;;4992515;28;20459;-59
2021/06/18 04:39:55;;;;;;;8.18;7.43;;;21.00;99.90;;;;;;4991852;28;20231;-61
2021/06/18 04:42:20;;;;;;;8.93;8.07;;;21.00;99.90;;;;;;4992472;28;20237;-61
2021/06/18 04:44:46;;;;;;;8.13;7.53;;;21.10;99.90;;;;;;4997040;28;20566;-61
2021/06/18 04:47:12;;;;;;;8.07;7.37;;;21.10;99.90;;;;;;4991409;28;20224;-61
2021/06/18 04:49:37;;;;;;;8.03;7.30;;;21.10;99.90;;;;;;4993922;28;20223;-61
2021/06/18 04:52:05;;;;;;;8.40;7.80;;;21.10;99.90;;;;;;4992373;28;20282;-61
2021/06/18 04:54:31;;;;;;;8.18;7.47;;;21.20;99.90;;;;;;4994597;28;20203;-61
2021/06/18 04:56:57;;;;;;;7.83;7.23;;;21.20;99.90;;;;;;4994141;28;20210;-61
2021/06/18 04:59:23;;;;;;;9.40;8.17;;;21.20;99.90;;;;;;4993652;28;20274;-58
2021/06/18 05:01:48;;;;;;;9.50;7.30;;;21.30;99.90;;;;;;4988288;28;20180;-58
2021/06/18 05:04:14;;;;;;;9.17;7.97;;;21.30;99.90;;;;;;4992030;28;20258;-59
2021/06/18 05:06:39;;;;;;;7.97;7.27;;;21.50;99.90;;;;;;5003128;28;20202;-59
2021/06/18 05:09:06;;;;;;;7.97;7.20;;;21.60;99.70;;;;;;4990306;28;20191;-58
2021/06/18 05:11:32;;;;;;;7.72;7.03;;;21.70;99.60;;;;;;4987091;28;20183;-59
2021/06/18 05:13:57;;;;;;;9.00;8.10;;;21.80;99.60;;;;;;4998229;28;20274;-58
2021/06/18 05:16:25;;;;;;;8.70;7.97;;;21.90;99.60;;;;;;4999479;28;20219;-59
2021/06/18 05:18:51;;;;;;;9.68;7.05;;;22.00;99.60;;;;;;4992562;28;20250;-58
2021/06/18 05:21:16;;;;;;;7.90;7.30;;;22.10;99.30;;;;;;4997422;28;20579;-57
2021/06/18 05:23:43;;;;;;;8.30;7.60;;;22.20;99.20;;;;;;4986421;28;20187;-59
2021/06/18 05:26:09;;;;;;;7.43;6.83;;;22.40;99.20;;;;;;4984610;28;20262;-58
2021/06/18 05:28:35;;;;;;;7.80;7.23;;;22.50;99.00;;;;;;4984180;28;20462;-58
2021/06/18 05:31:00;;;;;;;14.47;8.73;;;22.60;98.90;;;;;;4984991;28;20469;-58
2021/06/18 05:33:26;;;;;;;13.67;7.93;;;22.80;98.90;;;;;;4985038;28;20195;-60
2021/06/18 05:35:52;;;;;;;9.60;7.23;;;22.90;98.60;;;;;;4987016;28;20238;-60
2021/06/18 05:38:18;;;;;;;7.87;7.10;;;23.00;98.30;;;;;;4985282;28;20491;-58
2021/06/18 05:40:43;;;;;;;8.53;7.70;;;23.10;98.20;;;;;;4985769;28;20188;-59
2021/06/18 05:43:10;;;;;;;7.93;7.10;;;23.20;97.80;;;;;;4986918;28;20590;-59
2021/06/18 05:45:37;;;;;;;7.23;6.53;;;23.40;97.60;;;;;;4986378;28;20207;-59
2021/06/18 05:48:07;;;;;;;7.40;6.70;;;23.50;97.40;;;;;;4985149;28;20467;-59
2021/06/18 05:50:33;;;;;;;7.97;7.30;;;23.70;97.10;;;;;;4988643;28;20446;-58
2021/06/18 05:52:59;;;;;;;8.70;7.90;;;23.70;96.40;;;;;;4987057;28;20435;-59
2021/06/18 05:55:24;;;;;;;8.63;7.87;;;23.70;96.30;;;;;;4982780;28;20449;-57
2021/06/18 05:57:51;;;;;;;7.17;6.57;;;23.90;96.40;;;;;;4984431;28;20211;-58
2021/06/18 06:00:18;;;;;;;7.13;6.53;;;24.10;96.40;;;;;;4985621;28;20258;-58
2021/06/18 06:02:43;;;;;;;8.50;7.47;;;24.30;96.30;;;;;;4983528;28;20474;-58
2021/06/18 06:05:10;;;;;;;7.60;6.90;;;24.50;96.00;;;;;;4984970;28;20459;-58
2021/06/18 06:07:35;;;;;;;7.00;6.40;;;24.60;95.70;;;;;;4986807;28;20196;-58
2021/06/18 06:10:01;;;;;;;6.37;5.87;;;24.80;95.00;;;;;;4986789;28;20465;-58
2021/06/18 06:12:27;;;;;;;6.00;5.30;;;25.00;94.50;;;;;;4994593;28;20188;-57
2021/06/18 06:14:52;;;;;;;7.27;5.17;;;25.10;92.70;;;;;;4985269;28;20219;-59
2021/06/18 06:17:18;;;;;;;5.70;5.20;;;25.30;92.00;;;;;;4990713;28;20219;-59
2021/06/18 06:19:44;;;;;;;5.63;4.53;;;25.40;91.40;;;;;;4987348;28;20191;-58
2021/06/18 06:22:09;;;;;;;6.80;5.20;;;25.60;90.90;;;;;;4987690;28;20199;-57
2021/06/18 06:24:36;;;;;;;5.80;5.10;;;25.70;90.70;;;;;;4994409;28;20218;-57
2021/06/18 06:27:03;;;;;;;5.97;5.43;;;25.80;90.30;;;;;;4987649;28;20204;-59
2021/06/18 06:29:29;;;;;;;6.17;5.57;;;25.90;90.10;;;;;;4988191;28;20432;-58
2021/06/18 06:31:56;;;;;;;6.20;5.53;;;26.00;90.10;;;;;;4988705;28;20988;-58
2021/06/18 06:34:21;;;;;;;6.03;5.20;;;26.20;89.80;;;;;;4995331;28;20191;-58
2021/06/18 06:36:47;;;;;;;6.13;5.63;;;26.30;88.40;;;;;;4993317;28;20483;-58
2021/06/18 06:39:13;;;;;;;5.70;5.30;;;26.50;87.70;;;;;;5003459;28;20193;-59
2021/06/18 06:41:38;;;;;;;6.37;5.87;;;26.60;87.10;;;;;;4993846;28;20273;-55
2021/06/18 06:44:05;;;;;;;6.20;5.60;;;26.70;87.00;;;;;;4991083;28;20691;-57
2021/06/18 06:46:34;;;;;;;6.37;5.77;;;26.80;85.40;;;;;;4992784;28;20229;-57
2021/06/18 06:48:59;;;;;;;6.00;5.30;;;26.90;85.60;;;;;;4997886;28;20442;-58
2021/06/18 06:51:25;;;;;;;6.40;5.77;;;27.10;84.60;;;;;;4990341;28;20445;-58
2021/06/18 06:53:51;;;;;;;6.30;5.70;;;27.30;83.20;;;;;;4996103;28;20194;-57
2021/06/18 06:56:16;;;;;;;5.90;5.40;;;27.40;82.20;;;;;;4999369;28;20211;-57
2021/06/18 06:58:42;;;;;;;7.50;6.40;;;27.70;81.60;;;;;;4996361;28;20194;-57
2021/06/18 07:01:11;;;;;;;6.20;5.40;;;28.10;80.20;;;;;;4997705;28;20279;-57
2021/06/18 07:03:37;;;;;;;6.37;5.73;;;28.60;79.00;;;;;;5005153;28;20953;-57
2021/06/18 07:06:02;;;;;;;5.70;5.13;;;29.70;75.20;;;;;;4993454;28;20831;-58
2021/06/18 07:08:28;;;;;;;11.30;5.17;;;31.60;69.00;;;;;;4998785;28;20461;-57
2021/06/18 07:10:54;;;;;;;4.80;4.50;;;33.50;61.60;;;;;;4995341;28;20179;-59
2021/06/18 07:13:20;;;;;;;6.00;4.90;;;35.30;57.20;;;;;;4998039;28;20220;-58
2021/06/18 07:15:46;;;;;;;7.30;6.70;;;36.90;52.70;;;;;;4989635;28;20572;-58
2021/06/18 07:18:13;;;;;;;6.00;5.50;;;38.20;48.80;;;;;;4992905;28;20497;-56
2021/06/18 07:20:38;;;;;;;6.63;5.20;;;37.60;47.20;;;;;;4997968;28;20449;-57
2021/06/18 07:23:04;;;;;;;7.30;5.23;;;39.00;45.60;;;;;;4995172;28;20956;-58
2021/06/18 07:25:30;;;;;;;6.00;5.60;;;40.90;42.30;;;;;;4990941;28;20231;-57
2021/06/18 07:27:55;;;;;;;5.43;5.03;;;42.00;39.40;;;;;;4997455;28;20253;-58
2021/06/18 07:30:23;;;;;;;5.93;5.33;;;43.00;37.20;;;;;;5000326;28;20183;-59
2021/06/18 07:32:49;;;;;;;8.20;5.20;;;42.30;36.10;;;;;;4998215;28;20230;-59
2021/06/18 07:35:15;;;;;;;5.20;4.90;;;42.00;36.80;;;;;;4991849;28;20478;-59
2021/06/18 07:37:43;;;;;;;5.73;5.27;;;42.40;36.40;;;;;;4991576;28;20551;-60
2021/06/18 07:40:11;;;;;;;5.50;5.10;;;42.80;35.40;;;;;;4988956;28;20497;-61
2021/06/18 07:42:37;;;;;;;5.73;5.37;;;43.30;34.00;;;;;;4976124;28;20451;-58
2021/06/18 07:45:03;;;;;;;7.27;5.30;;;43.80;33.00;;;;;;4983600;28;20488;-59
2021/06/18 07:47:29;;;;;;;6.10;5.60;;;44.50;32.40;;;;;;4993462;28;20207;-61
2021/06/18 07:49:55;;;;;;;6.43;5.47;;;44.60;31.90;;;;;;4987002;28;20454;-60
2021/06/18 07:52:21;;;;;;;6.57;6.07;;;42.70;33.10;;;;;;4994628;28;20190;-58
2021/06/18 07:54:51;;;;;;;6.50;5.90;;;43.00;33.10;;;;;;4990683;28;20218;-59
2021/06/18 07:57:16;;;;;;;6.67;5.77;;;43.00;32.90;;;;;;4989648;28;20473;-59
2021/06/18 07:59:42;;;;;;;6.53;6.03;;;43.50;32.90;;;;;;4997610;28;20442;-60
2021/06/18 08:02:08;;;;;;;6.33;5.93;;;44.70;31.50;;;;;;4991458;28;20204;-62
2021/06/18 08:04:33;;;;;;;9.20;6.20;;;42.60;32.60;;;;;;4991645;28;20215;-59
2021/06/18 08:06:59;;;;;;;6.60;6.00;;;43.90;32.40;;;;;;4990530;28;20211;-60
2021/06/18 08:09:25;;;;;;;6.73;6.33;;;43.70;31.50;;;;;;4990566;28;20242;-60
2021/06/18 08:11:52;;;;;;;9.17;8.47;;;43.00;32.60;;;;;;4990088;28;20183;-60
2021/06/18 08:14:17;;;;;;;8.53;6.67;;;44.10;32.10;;;;;;4989763;28;20696;-60
2021/06/18 08:16:44;;;;;;;7.93;6.43;;;43.50;32.20;;;;;;4989008;28;20568;-59
2021/06/18 08:19:10;;;;;;;6.90;6.20;;;42.80;33.30;;;;;;4993303;28;20182;-60
2021/06/18 08:21:35;;;;;;;7.47;6.77;;;44.30;32.20;;;;;;4994665;28;20435;-60
2021/06/18 08:24:01;;;;;;;7.27;6.60;;;44.70;31.60;;;;;;4994021;28;20183;-60
2021/06/18 08:26:26;;;;;;;6.87;6.27;;;45.40;30.60;;;;;;4993765;28;20219;-60
2021/06/18 08:28:52;;;;;;;6.33;5.93;;;44.90;31.50;;;;;;4989316;28;20274;-60
2021/06/18 08:31:18;;;;;;;7.30;6.70;;;45.80;30.80;;;;;;4990174;28;20366;-60
2021/06/18 08:33:43;;;;;;;6.73;6.23;;;43.20;32.50;;;;;;4987978;28;20269;-59
2021/06/18 08:36:09;;;;;;;7.30;6.70;;;42.70;34.80;;;;;;4990355;28;20183;-59
2021/06/18 08:38:35;;;;;;;7.40;6.80;;;43.70;33.60;;;;;;4995732;28;20285;-63
2021/06/18 08:41:03;;;;;;;9.20;8.23;;;43.70;33.00;;;;;;4987776;28;20198;-59
2021/06/18 08:43:30;;;;;;;8.57;6.97;;;43.60;33.10;;;;;;4989121;28;20442;-59
2021/06/18 08:45:57;;;;;;;7.43;6.83;;;44.50;32.20;;;;;;4989620;28;20511;-59
2021/06/18 08:48:23;;;;;;;12.83;7.47;;;44.90;31.90;;;;;;4985632;28;20830;-59
2021/06/18 08:50:48;;;;;;;7.20;6.50;;;45.00;31.30;;;;;;4991803;28;21184;-59
2021/06/18 08:53:17;;;;;;;9.50;7.83;;;43.50;32.30;;;;;;4997662;28;20182;-60
2021/06/18 08:55:44;;;;;;;7.70;7.03;;;42.10;33.20;;;;;;4985614;28;20608;-60
2021/06/18 08:58:09;;;;;;;7.53;7.00;;;42.60;33.90;;;;;;4992756;28;20480;-61
2021/06/18 09:00:35;;;;;;;7.80;7.17;;;43.10;33.20;;;;;;4988876;28;20797;-60
2021/06/18 09:03:41;;;;;;;7.60;7.00;;;42.80;32.50;;;;;;4991895;28;20183;-60
2021/06/18 09:06:25;;;;;;;7.10;6.53;;;43.20;33.00;;;;;;4993248;28;20302;-60
2021/06/18 09:09:09;;;;;;;7.60;6.90;;;43.40;32.00;;;;;;4991017;28;20491;-60
2021/06/18 09:11:41;;;;;;;19.63;18.10;;;42.70;32.30;;;;;;4988616;28;20435;-60
2021/06/18 09:14:27;;;;;;;8.77;7.70;;;42.00;33.60;;;;;;4982740;28;20430;-60
2021/06/18 09:17:20;;;;;;;7.50;6.90;;;43.30;32.90;;;;;;4998517;28;20597;-60
2021/06/18 09:19:49;;;;;;;9.37;7.90;;;43.80;32.40;;;;;;4997097;28;20434;-62
2021/06/18 09:22:20;;;;;;;7.53;7.03;;;44.40;32.10;;;;;;4997646;28;20427;-61
2021/06/18 09:24:56;;;;;;;8.40;7.70;;;43.00;32.50;;;;;;5001778;28;20465;-60
2021/06/18 09:27:34;;;;;;;8.40;7.70;;;43.20;33.50;;;;;;4984370;28;20495;-60
2021/06/18 09:30:16;;;;;;;8.10;7.50;;;42.50;33.60;;;;;;4990933;28;20442;-60
2021/06/18 09:32:58;;;;;;;8.80;8.20;;;43.70;32.80;;;;;;4995295;28;20446;-59
2021/06/18 09:35:24;;;;;;;7.60;7.10;;;44.30;32.00;;;;;;4996490;28;20440;-58
2021/06/18 09:37:59;;;;;;;8.30;7.63;;;43.60;31.90;;;;;;4986311;28;20458;-62
2021/06/18 09:40:26;;;;;;;8.50;7.90;;;43.00;33.20;;;;;;4984303;28;20589;-60
2021/06/18 09:43:21;;;;;;;7.80;7.30;;;44.00;31.60;;;;;;4997589;28;20464;-60
2021/06/18 09:45:47;;;;;;;7.97;7.27;;;44.50;30.60;;;;;;4987603;28;20502;-62
2021/06/18 09:48:22;;;;;;;7.87;7.37;;;44.40;30.60;;;;;;4988622;28;20890;-61
2021/06/18 09:50:50;;;;;;;9.90;9.20;;;44.80;30.30;;;;;;4993258;28;20433;-61
2021/06/18 09:53:22;;;;;;;8.40;7.80;;;45.20;30.10;;;;;;4989850;28;20443;-61
2021/06/18 09:56:10;;;;;;;8.50;7.80;;;45.60;29.70;;;;;;4991844;28;20441;-59
2021/06/18 09:58:38;;;;;;;8.03;7.53;;;45.60;29.50;;;;;;4991638;28;20966;-61
2021/06/18 10:01:21;;;;;;;7.00;6.60;;;45.10;29.90;;;;;;4988687;28;20447;-60
2021/06/18 10:04:10;;;;;;;7.97;7.43;;;45.20;29.60;;;;;;4995078;28;20460;-60
2021/06/18 10:06:37;;;;;;;7.80;7.00;;;44.80;29.70;;;;;;4982425;28;20482;-60
2021/06/18 10:09:06;;;;;;;7.50;6.90;;;44.50;29.40;;;;;;4985341;28;20824;-60
2021/06/18 10:11:33;;;;;;;7.80;7.30;;;43.10;31.00;;;;;;4992884;28;20449;-61
2021/06/18 10:13:59;;;;;;;7.47;6.87;;;43.70;30.80;;;;;;4993623;28;20516;-60
2021/06/18 10:16:26;;;;;;;8.40;7.80;;;44.00;30.10;;;;;;4998492;28;20453;-60
2021/06/18 10:18:54;;;;;;;8.20;7.53;;;44.40;30.00;;;;;;4991359;28;20469;-60
2021/06/18 10:21:22;;;;;;;8.90;7.97;;;44.40;30.00;;;;;;5006366;28;20445;-60
2021/06/18 10:23:53;;;;;;;8.43;7.70;;;44.50;29.60;;;;;;5004177;28;20508;-59
2021/06/18 10:26:21;;;;;;;8.20;7.57;;;43.80;29.60;;;;;;4997649;28;20481;-60
2021/06/18 10:28:55;;;;;;;8.10;7.03;;;44.50;29.90;;;;;;4997449;28;20968;-58
2021/06/18 10:31:30;;;;;;;7.87;7.30;;;44.20;29.70;;;;;;4991277;28;20434;-59
2021/06/18 10:34:05;;;;;;;8.23;7.53;;;43.40;30.30;;;;;;4998204;28;20512;-60
2021/06/18 10:36:31;;;;;;;7.20;6.70;;;43.10;31.50;;;;;;4988918;28;20513;-60
2021/06/18 10:39:15;;;;;;;7.87;7.20;;;42.60;30.10;;;;;;4992356;28;20494;-60
2021/06/18 10:41:48;;;;;;;7.10;6.70;;;42.50;31.10;;;;;;4994080;28;20282;-59
2021/06/18 10:44:39;;;;;;;8.30;7.60;;;42.30;31.10;;;;;;5002281;28;20433;-58
2021/06/18 10:47:31;;;;;;;8.40;7.60;;;41.00;33.00;;;;;;4996399;28;20561;-60
2021/06/18 10:49:58;;;;;;;7.47;6.97;;;40.80;33.00;;;;;;4989586;28;20543;-60
2021/06/18 10:52:26;;;;;;;7.70;7.10;;;40.10;34.10;;;;;;4991602;28;20426;-60
2021/06/18 10:54:56;;;;;;;7.37;6.80;;;40.80;33.10;;;;;;4997986;28;20997;-60
2021/06/18 10:57:24;;;;;;;7.80;7.20;;;41.70;31.90;;;;;;4990758;28;20461;-59
2021/06/18 11:00:16;;;;;;;7.63;6.90;;;42.30;31.60;;;;;;4994224;28;20439;-60
2021/06/18 11:02:44;;;;;;;7.30;6.70;;;42.80;30.90;;;;;;5002130;28;20499;-59
2021/06/18 11:05:15;;;;;;;7.57;7.00;;;42.60;30.80;;;;;;5000497;28;20859;-60
2021/06/18 11:07:42;;;;;;;7.20;6.70;;;42.70;30.50;;;;;;4995927;28;20506;-59
2021/06/18 11:10:13;;;;;;;6.60;6.20;;;42.70;30.70;;;;;;4994322;28;20485;-59
2021/06/18 11:12:47;;;;;;;6.13;5.60;;;42.80;29.70;;;;;;4995277;28;20431;-58
2021/06/18 11:15:16;;;;;;;6.40;5.90;;;42.70;28.30;;;;;;4997799;28;20434;-58
2021/06/18 11:18:13;;;;;;;6.30;5.90;;;42.40;28.50;;;;;;4992049;28;20891;-58
2021/06/18 11:20:41;;;;;;;5.57;5.10;;;42.00;28.50;;;;;;4996759;28;21041;-57
2021/06/18 11:23:16;;;;;;;6.60;6.03;;;42.30;27.60;;;;;;5002109;28;20794;-58
2021/06/18 11:25:43;;;;;;;7.57;7.07;;;42.20;28.80;;;;;;4991641;28;20470;-57
2021/06/18 11:28:27;;;;;;;6.30;5.83;;;41.60;28.70;;;;;;4998728;28;21023;-58
2021/06/18 11:30:56;;;;;;;6.83;6.23;;;40.60;30.70;;;;;;4998590;28;20465;-58
2021/06/18 11:36:17;;;;;;;6.73;6.27;;;40.60;32.00;;;;;;4994034;28;20443;-58
2021/06/18 11:38:44;;;;;;;7.10;6.60;;;39.80;31.10;;;;;;4992126;28;20906;-59
2021/06/18 11:41:10;;;;;;;7.00;6.37;;;39.60;32.60;;;;;;4987512;28;20443;-59
2021/06/18 11:43:38;;;;;;;6.70;6.30;;;39.30;32.60;;;;;;4996683;28;20642;-62
2021/06/18 11:46:04;;;;;;;5.80;5.40;;;38.70;32.90;;;;;;5006682;28;20463;-57
2021/06/18 11:48:31;;;;;;;7.90;6.60;;;38.50;31.70;;;;;;4996121;28;20467;-58
2021/06/18 11:50:58;;;;;;;6.90;6.40;;;37.50;33.20;;;;;;4995610;28;20796;-57
2021/06/18 11:53:34;;;;;;;6.90;6.30;;;37.00;34.40;;;;;;4997682;28;20787;-58
2021/06/18 11:56:04;;;;;;;6.03;5.63;;;36.80;33.60;;;;;;4989576;28;20446;-59
2021/06/18 11:58:33;;;;;;;5.53;5.03;;;36.50;34.60;;;;;;4989703;28;20462;-56
2021/06/18 12:01:09;;;;;;;6.03;5.53;;;36.20;34.00;;;;;;4995597;28;20850;-57
2021/06/18 12:03:35;;;;;;;5.50;5.10;;;36.00;34.30;;;;;;4991164;28;20442;-56
2021/06/18 12:06:17;;;;;;;6.57;5.87;;;35.60;34.60;;;;;;4988935;28;20566;-57
2021/06/18 12:09:08;;;;;;;6.20;5.70;;;35.40;35.40;;;;;;4993330;28;20601;-58
2021/06/18 12:11:35;;;;;;;5.83;5.40;;;35.40;35.90;;;;;;4998540;28;20446;-58
2021/06/18 12:14:01;;;;;;;6.63;6.13;;;35.30;34.60;;;;;;4988795;28;20450;-59
2021/06/18 12:16:28;;;;;;;5.90;5.40;;;35.20;35.50;;;;;;4990181;28;20439;-57
2021/06/18 12:18:55;;;;;;;5.77;5.33;;;35.00;36.20;;;;;;4990742;28;20807;-57
2021/06/18 12:21:28;;;;;;;6.87;5.93;;;35.00;35.70;;;;;;4997566;28;20935;-57
2021/06/18 12:24:05;;;;;;;5.97;5.47;;;34.80;35.50;;;;;;4997272;28;20609;-56
2021/06/18 12:26:31;;;;;;;5.77;5.27;;;34.80;35.80;;;;;;5001669;28;20612;-58
2021/06/18 12:29:00;;;;;;;6.00;5.60;;;34.70;35.70;;;;;;4990524;28;20948;-59
2021/06/18 12:31:26;;;;;;;6.30;5.80;;;34.70;36.70;;;;;;4984880;28;20434;-58
2021/06/18 12:33:51;;;;;;;6.60;5.47;;;34.70;36.40;;;;;;4995909;28;20683;-57
2021/06/18 12:36:19;;;;;;;5.73;5.33;;;34.70;36.50;;;;;;4996972;28;20269;-59
2021/06/18 12:38:49;;;;;;;6.50;5.90;;;34.60;36.60;;;;;;4988818;28;20207;-58
2021/06/18 12:41:27;;;;;;;6.33;5.73;;;34.60;35.80;;;;;;4996894;28;20946;-59
2021/06/18 12:44:00;;;;;;;6.87;6.30;;;34.50;36.20;;;;;;4990882;28;20460;-58
2021/06/18 12:46:26;;;;;;;6.40;5.50;;;34.40;37.60;;;;;;4991926;28;21281;-57
2021/06/18 12:48:52;;;;;;;6.37;5.30;;;34.30;36.90;;;;;;4996758;28;20437;-58
2021/06/18 12:51:21;;;;;;;5.97;5.47;;;34.30;36.60;;;;;;4992588;28;20180;-58
2021/06/18 12:53:49;;;;;;;6.67;6.17;;;34.20;37.10;;;;;;4997916;28;20558;-57
2021/06/18 12:56:22;;;;;;;5.70;5.20;;;34.10;36.80;;;;;;4987174;28;20446;-55
2021/06/18 12:58:50;;;;;;;5.47;5.07;;;34.00;35.70;;;;;;4994873;28;20469;-57